createdAt,value
2019-01-06T00:02:20.401Z,5.60
2019-01-06T00:04:57.503Z,5.60
2019-01-06T00:07:37.217Z,5.60
2019-01-06T00:10:09.178Z,5.50
2019-01-06T00:12:58.494Z,5.60
2019-01-06T00:18:22.042Z,5.60
2019-01-06T00:21:09.895Z,5.60
2019-01-06T00:23:55.979Z,5.60
2019-01-06T00:26:35.927Z,5.60
2019-01-06T00:29:12.773Z,5.70
2019-01-06T00:31:44.032Z,5.70
2019-01-06T00:34:27.016Z,5.70
2019-01-06T00:37:07.210Z,5.70
2019-01-06T00:39:54.394Z,5.70
2019-01-06T00:42:31.310Z,5.60
2019-01-06T00:45:18.798Z,5.70
2019-01-06T00:48:06.274Z,5.60
2019-01-06T00:50:53.546Z,5.60
2019-01-06T00:53:41.018Z,5.70
2019-01-06T00:56:23.750Z,5.60
2019-01-06T00:59:03.802Z,5.60
2019-01-06T01:01:47.123Z,5.60
2019-01-06T01:04:34.119Z,5.60
2019-01-06T01:07:21.765Z,5.60
2019-01-06T01:09:55.373Z,5.60
2019-01-06T01:12:31.854Z,5.60
2019-01-06T01:15:05.426Z,5.60
2019-01-06T01:17:45.334Z,5.60
2019-01-06T01:20:25.639Z,5.50
2019-01-06T01:23:08.258Z,5.60
2019-01-06T01:25:45.165Z,5.60
2019-01-06T01:28:28.418Z,5.60
2019-01-06T01:31:17.723Z,5.60
2019-01-06T01:33:48.975Z,5.60
2019-01-06T01:36:19.894Z,5.60
2019-01-06T01:39:07.197Z,5.70
2019-01-06T01:41:38.386Z,5.70
2019-01-06T01:44:21.399Z,5.70
2019-01-06T01:46:52.322Z,5.60
2019-01-06T01:49:26.155Z,5.60
2019-01-06T01:52:02.826Z,5.60
2019-01-06T01:54:34.118Z,5.60
2019-01-06T01:57:10.947Z,5.60
2019-01-06T01:59:58.195Z,5.60
2019-01-06T02:02:29.107Z,5.60
2019-01-06T02:05:18.266Z,5.60
2019-01-06T02:07:49.259Z,5.70
2019-01-06T02:10:26.275Z,5.60
2019-01-06T02:13:06.210Z,5.60
2019-01-06T02:15:37.497Z,5.60
2019-01-06T02:18:23.438Z,5.60
2019-01-06T02:21:00.210Z,5.50
2019-01-06T02:23:37.446Z,5.50
2019-01-06T02:26:26.738Z,5.50
2019-01-06T02:28:57.658Z,5.70
2019-01-06T02:31:40.511Z,5.60
2019-01-06T02:34:27.718Z,5.60
2019-01-06T02:36:58.644Z,5.50
2019-01-06T02:39:32.701Z,5.40
2019-01-06T02:42:20.171Z,5.40
2019-01-06T02:44:54.391Z,5.40
2019-01-06T02:47:43.479Z,5.40
2019-01-06T02:50:14.702Z,5.40
2019-01-06T02:53:01.972Z,5.50
2019-01-06T02:55:35.595Z,5.40
2019-01-06T02:58:15.462Z,5.50
2019-01-06T03:01:02.990Z,5.50
2019-01-06T03:03:52.377Z,5.50
2019-01-06T03:06:38.591Z,5.50
2019-01-06T03:09:27.506Z,5.50
2019-01-06T03:12:04.138Z,5.40
2019-01-06T03:14:37.996Z,5.50
2019-01-06T03:17:08.909Z,5.40
2019-01-06T03:19:56.445Z,5.50
2019-01-06T03:22:39.622Z,5.50
2019-01-06T03:25:19.274Z,5.40
2019-01-06T03:27:53.136Z,5.40
2019-01-06T03:30:26.792Z,5.30
2019-01-06T03:33:06.665Z,5.30
2019-01-06T03:35:40.548Z,5.30
2019-01-06T03:38:30.092Z,5.30
2019-01-06T03:41:04.986Z,5.30
2019-01-06T03:43:41.573Z,5.30
2019-01-06T03:46:12.506Z,5.40
2019-01-06T03:48:49.619Z,5.40
2019-01-06T03:51:20.529Z,5.50
2019-01-06T03:53:57.170Z,5.50
2019-01-06T03:56:44.366Z,5.50
2019-01-06T03:59:15.299Z,5.50
2019-01-06T04:01:52.476Z,5.40
2019-01-06T04:04:38.783Z,5.30
2019-01-06T04:07:25.955Z,5.30
2019-01-06T04:09:56.886Z,5.30
2019-01-06T04:12:27.799Z,5.30
2019-01-06T04:15:15.010Z,5.30
2019-01-06T04:17:51.658Z,5.30
2019-01-06T04:20:25.538Z,5.30
2019-01-06T04:23:05.350Z,5.40
2019-01-06T04:25:39.271Z,5.30
2019-01-06T04:28:10.490Z,5.30
2019-01-06T04:30:58.027Z,5.30
2019-01-06T04:33:35.039Z,5.30
2019-01-06T04:36:08.719Z,5.30
2019-01-06T04:38:58.258Z,5.40
2019-01-06T04:41:32.287Z,5.30
2019-01-06T04:44:18.679Z,5.30
2019-01-06T04:47:04.522Z,5.30
2019-01-06T04:49:35.452Z,5.30
2019-01-06T04:52:12.593Z,5.30
2019-01-06T04:54:55.251Z,5.30
2019-01-06T04:57:42.403Z,5.40
2019-01-06T05:00:29.555Z,5.30
2019-01-06T05:03:17.107Z,5.30
2019-01-06T05:06:00.751Z,5.30
2019-01-06T05:08:37.406Z,5.40
2019-01-06T05:11:08.335Z,5.30
2019-01-06T05:13:39.567Z,5.30
2019-01-06T05:16:26.769Z,5.30
2019-01-06T05:19:16.157Z,5.40
2019-01-06T05:21:47.078Z,5.40
2019-01-06T05:24:24.094Z,5.40
2019-01-06T05:26:57.758Z,5.40
2019-01-06T05:29:34.549Z,5.40
2019-01-06T05:32:11.846Z,5.40
2019-01-06T05:34:43.108Z,5.40
2019-01-06T05:37:29.050Z,5.40
2019-01-06T05:40:00.228Z,5.40
2019-01-06T05:42:47.579Z,5.40
2019-01-06T05:45:34.831Z,5.40
2019-01-06T05:48:08.682Z,5.40
2019-01-06T05:50:54.586Z,5.40
2019-01-06T05:53:25.509Z,5.30
2019-01-06T05:56:00.041Z,5.30
2019-01-06T05:58:33.677Z,5.40
2019-01-06T06:01:11.084Z,5.40
2019-01-06T06:03:42.022Z,5.40
2019-01-06T06:06:31.044Z,5.40
2019-01-06T06:09:20.406Z,5.40
2019-01-06T06:12:07.772Z,5.50
2019-01-06T06:14:44.915Z,5.50
2019-01-06T06:17:20.155Z,5.40
2019-01-06T06:19:53.855Z,5.40
2019-01-06T06:22:30.563Z,5.40
2019-01-06T06:25:07.668Z,5.50
2019-01-06T06:27:41.162Z,5.50
2019-01-06T06:30:27.095Z,5.40
2019-01-06T06:33:07.037Z,5.40
2019-01-06T06:35:54.485Z,5.50
2019-01-06T06:38:37.697Z,5.40
2019-01-06T06:41:18.170Z,5.40
2019-01-06T06:43:52.385Z,5.40
2019-01-06T06:46:38.558Z,5.50
2019-01-06T06:49:09.485Z,5.50
2019-01-06T06:51:56.707Z,5.50
2019-01-06T06:54:39.741Z,5.40
2019-01-06T06:57:47.075Z,5.40
2019-01-06T07:00:48.193Z,5.40
2019-01-06T07:03:53.655Z,5.40
2019-01-06T07:06:27.218Z,5.40
2019-01-06T07:09:16.274Z,5.40
2019-01-06T07:11:53.152Z,5.40
2019-01-06T07:14:40.054Z,5.40
2019-01-06T07:17:46.900Z,5.50
2019-01-06T07:20:23.034Z,5.50
2019-01-06T07:22:55.328Z,5.50
2019-01-06T07:25:26.573Z,5.50
2019-01-06T07:28:12.766Z,5.50
2019-01-06T07:30:49.694Z,5.50
2019-01-06T07:33:39.322Z,5.40
2019-01-06T07:36:15.954Z,5.40
2019-01-06T07:38:52.622Z,5.40
2019-01-06T07:41:40.066Z,5.40
2019-01-06T07:44:23.323Z,5.40
2019-01-06T07:47:10.723Z,5.40
2019-01-06T07:49:53.756Z,5.50
2019-01-06T07:52:39.850Z,5.40
2019-01-06T07:55:16.842Z,5.40
2019-01-06T07:57:50.725Z,5.40
2019-01-06T08:00:24.591Z,5.40
2019-01-06T08:03:01.670Z,5.40
2019-01-06T08:05:41.785Z,5.40
2019-01-06T08:08:21.480Z,5.40
2019-01-06T08:10:52.403Z,5.40
2019-01-06T08:13:26.237Z,5.30
2019-01-06T08:16:00.618Z,5.30
2019-01-06T08:18:46.639Z,5.40
2019-01-06T08:21:29.619Z,5.40
2019-01-06T08:24:03.083Z,5.40
2019-01-06T08:26:36.930Z,5.40
2019-01-06T08:29:13.329Z,5.40
2019-01-06T08:31:49.959Z,5.40
2019-01-06T08:34:20.889Z,5.30
2019-01-06T08:37:08.070Z,5.20
2019-01-06T08:39:41.647Z,5.20
2019-01-06T08:42:28.822Z,5.30
2019-01-06T08:45:16.241Z,5.30
2019-01-06T08:47:55.934Z,5.30
2019-01-06T08:50:42.134Z,5.30
2019-01-06T08:53:13.066Z,5.30
2019-01-06T08:55:59.359Z,5.30
2019-01-06T08:58:30.509Z,5.40
2019-01-06T09:01:17.823Z,5.40
2019-01-06T09:03:51.685Z,5.50
2019-01-06T09:06:37.674Z,5.50
2019-01-06T09:09:08.847Z,5.50
2019-01-06T09:11:42.653Z,5.50
2019-01-06T09:14:13.586Z,5.50
2019-01-06T09:16:59.916Z,5.50
2019-01-06T09:19:50.641Z,5.50
2019-01-06T09:22:32.414Z,5.50
2019-01-06T09:25:03.347Z,5.50
2019-01-06T09:27:46.230Z,6.20
2019-01-06T09:30:33.239Z,6.10
2019-01-06T09:33:13.237Z,5.80
2019-01-06T09:36:00.314Z,5.80
2019-01-06T09:38:46.177Z,5.60
2019-01-06T09:41:20.083Z,5.60
2019-01-06T09:44:06.135Z,5.60
2019-01-06T09:46:37.045Z,5.60
2019-01-06T09:49:08.235Z,5.50
2019-01-06T09:51:44.851Z,5.60
2019-01-06T09:54:28.230Z,5.60
2019-01-06T09:57:06.447Z,5.70
2019-01-06T09:59:54.083Z,5.60
2019-01-06T10:02:34.091Z,5.60
2019-01-06T10:05:23.199Z,5.50
2019-01-06T10:07:56.716Z,5.60
2019-01-06T10:10:27.651Z,5.60
2019-01-06T10:12:58.574Z,5.60
2019-01-06T10:15:29.506Z,5.60
2019-01-06T10:18:00.756Z,5.60
2019-01-06T10:20:31.708Z,5.60
2019-01-06T10:23:15.027Z,5.60
2019-01-06T10:25:48.862Z,5.70
2019-01-06T10:28:22.640Z,5.70
2019-01-06T10:30:53.570Z,5.70
2019-01-06T10:33:30.634Z,5.70
2019-01-06T10:36:16.710Z,5.70
2019-01-06T10:38:53.362Z,5.70
2019-01-06T10:41:35.962Z,5.70
2019-01-06T10:44:10.022Z,5.70
2019-01-06T10:46:57.596Z,5.70
2019-01-06T10:49:31.191Z,5.60
2019-01-06T10:52:04.854Z,5.60
2019-01-06T10:54:36.031Z,5.60
2019-01-06T10:57:11.893Z,5.70
2019-01-06T10:59:43.047Z,5.60
2019-01-06T11:02:26.042Z,5.70
2019-01-06T11:05:13.377Z,5.70
2019-01-06T11:07:44.306Z,5.70
2019-01-06T11:10:27.148Z,5.60
2019-01-06T11:13:16.402Z,5.60
2019-01-06T11:15:56.286Z,5.70
2019-01-06T11:18:27.193Z,5.70
2019-01-06T11:21:15.308Z,5.70
2019-01-06T11:23:52.519Z,5.80
2019-01-06T11:26:26.366Z,5.80
2019-01-06T11:29:15.675Z,5.90
2019-01-06T11:31:46.946Z,5.90
2019-01-06T11:34:34.113Z,5.90
2019-01-06T11:37:05.037Z,6.00
2019-01-06T11:39:52.633Z,5.90
2019-01-06T11:42:39.733Z,6.00
2019-01-06T11:45:10.910Z,5.90
2019-01-06T11:47:59.621Z,5.90
2019-01-06T11:50:36.617Z,6.00
2019-01-06T11:53:10.977Z,5.90
2019-01-06T11:55:47.891Z,5.90
2019-01-06T11:58:18.815Z,5.90
2019-01-06T12:00:49.733Z,5.90
2019-01-06T12:03:36.975Z,5.90
2019-01-06T12:06:19.861Z,5.90
2019-01-06T12:08:59.777Z,6.00
2019-01-06T12:11:36.409Z,6.00
2019-01-06T12:14:16.832Z,6.00
2019-01-06T12:17:05.297Z,5.90
2019-01-06T12:19:39.141Z,5.80
2019-01-06T12:22:15.812Z,5.90
2019-01-06T12:24:47.016Z,6.00
2019-01-06T12:27:20.710Z,6.00
2019-01-06T12:29:51.958Z,6.10
2019-01-06T12:32:38.462Z,6.00
2019-01-06T12:35:12.303Z,6.00
2019-01-06T12:37:45.971Z,6.00
2019-01-06T12:40:16.897Z,5.90
2019-01-06T12:43:04.324Z,6.00
2019-01-06T12:45:38.170Z,6.00
2019-01-06T12:48:12.359Z,6.10
2019-01-06T12:50:43.287Z,6.00
2019-01-06T12:53:29.362Z,6.10
2019-01-06T12:56:00.542Z,6.00
2019-01-06T12:58:40.542Z,6.10
2019-01-06T13:01:27.446Z,6.00
2019-01-06T13:04:07.508Z,6.10
2019-01-06T13:06:38.710Z,6.00
2019-01-06T13:09:12.738Z,5.90
2019-01-06T13:11:46.932Z,5.90
2019-01-06T13:14:26.842Z,5.90
2019-01-06T13:16:57.763Z,5.90
2019-01-06T13:19:40.910Z,6.00
2019-01-06T13:22:30.095Z,6.00
2019-01-06T13:25:01.036Z,6.10
2019-01-06T13:27:48.203Z,6.00
2019-01-06T13:30:19.125Z,6.00
2019-01-06T13:33:02.332Z,6.00
2019-01-06T13:35:33.588Z,6.00
2019-01-06T13:38:16.767Z,6.00
2019-01-06T13:40:50.355Z,6.00
2019-01-06T13:43:33.228Z,5.90
2019-01-06T13:46:19.419Z,5.90
2019-01-06T13:49:05.596Z,6.00
2019-01-06T13:51:36.546Z,6.00
2019-01-06T13:54:30.155Z,6.00
2019-01-06T13:57:14.615Z,5.90
2019-01-06T14:00:02.220Z,5.90
2019-01-06T14:02:48.154Z,6.00
2019-01-06T14:05:21.852Z,6.00
2019-01-06T14:08:01.868Z,6.00
2019-01-06T14:10:32.790Z,6.00
2019-01-06T14:13:06.646Z,6.00
2019-01-06T14:15:37.576Z,6.00
2019-01-06T14:18:14.426Z,6.00
2019-01-06T14:20:48.570Z,6.00
2019-01-06T14:23:28.496Z,6.10
2019-01-06T14:26:09.059Z,6.10
2019-01-06T14:28:54.913Z,6.10
2019-01-06T14:31:36.032Z,6.10
2019-01-06T14:34:23.358Z,6.00
2019-01-06T14:37:03.301Z,6.10
2019-01-06T14:39:49.910Z,6.10
2019-01-06T14:42:36.845Z,6.10
2019-01-06T14:45:10.911Z,6.10
2019-01-06T14:47:58.362Z,6.10
2019-01-06T14:50:33.391Z,6.10
2019-01-06T14:53:04.305Z,6.20
2019-01-06T14:55:40.820Z,6.10
2019-01-06T14:58:12.055Z,6.10
2019-01-06T15:00:48.717Z,6.20
2019-01-06T15:03:28.621Z,6.20
2019-01-06T15:06:04.985Z,6.20
2019-01-06T15:08:36.182Z,6.20
2019-01-06T15:11:23.505Z,6.20
2019-01-06T15:14:00.756Z,6.20
2019-01-06T15:16:31.685Z,6.20
2019-01-06T15:19:15.562Z,6.20
2019-01-06T15:21:58.273Z,6.20
2019-01-06T15:24:32.129Z,6.10
2019-01-06T15:27:11.891Z,6.20
2019-01-06T15:29:43.088Z,6.00
2019-01-06T15:32:19.769Z,6.00
2019-01-06T15:35:07.358Z,6.00
2019-01-06T15:37:38.294Z,6.00
2019-01-06T15:40:15.504Z,6.00
2019-01-06T15:42:58.952Z,6.00
2019-01-06T15:45:32.864Z,6.10
2019-01-06T15:48:07.076Z,6.20
2019-01-06T15:50:38.323Z,9.80
2019-01-06T15:53:11.898Z,9.10
2019-01-06T15:55:48.903Z,8.30
2019-01-06T15:58:19.834Z,7.70
2019-01-06T16:01:07.031Z,7.30
2019-01-06T16:03:56.686Z,7.00
2019-01-06T16:06:30.347Z,6.80
2019-01-06T16:09:19.263Z,6.70
2019-01-06T16:11:56.289Z,6.50
2019-01-06T16:14:27.535Z,6.40
2019-01-06T16:17:10.147Z,6.40
2019-01-06T16:19:57.504Z,6.40
2019-01-06T16:22:34.248Z,6.30
2019-01-06T16:25:05.346Z,6.10
2019-01-06T16:27:39.304Z,6.10
2019-01-06T16:30:28.391Z,6.10
2019-01-06T16:33:05.451Z,6.10
2019-01-06T16:35:46.011Z,6.10
2019-01-06T16:38:19.981Z,6.10
2019-01-06T16:40:56.864Z,6.00
2019-01-06T16:43:36.597Z,6.10
2019-01-06T16:46:13.337Z,6.00
2019-01-06T16:48:49.981Z,6.00
2019-01-06T16:51:20.897Z,5.90
2019-01-06T16:54:03.837Z,6.00
2019-01-06T16:56:50.985Z,6.00
2019-01-06T16:59:33.935Z,5.90
2019-01-06T17:02:07.396Z,6.00
2019-01-06T17:04:44.367Z,6.00
2019-01-06T17:07:21.027Z,5.90
2019-01-06T17:09:54.679Z,5.80
2019-01-06T17:12:28.559Z,5.90
2019-01-06T17:15:08.635Z,5.90
2019-01-06T17:17:48.565Z,5.80
2019-01-06T17:20:31.506Z,5.80
2019-01-06T17:23:17.503Z,5.80
2019-01-06T17:25:58.047Z,5.80
2019-01-06T17:28:38.243Z,5.80
2019-01-06T17:31:27.563Z,5.80
2019-01-06T17:33:58.812Z,5.90
2019-01-06T17:36:47.946Z,5.80
2019-01-06T17:39:35.105Z,5.80
2019-01-06T17:42:11.984Z,5.70
2019-01-06T17:44:54.780Z,5.70
2019-01-06T17:47:42.224Z,5.70
2019-01-06T17:50:25.050Z,5.70
2019-01-06T17:53:11.229Z,5.60
2019-01-06T17:55:58.726Z,5.70
2019-01-06T17:58:29.658Z,5.80
2019-01-06T18:01:13.127Z,5.80
2019-01-06T18:03:44.378Z,5.70
2019-01-06T18:06:32.111Z,5.70
2019-01-06T18:09:06.134Z,5.70
2019-01-06T18:11:47.839Z,5.70
2019-01-06T18:14:18.946Z,5.70
2019-01-06T18:16:49.873Z,5.70
2019-01-06T18:19:32.935Z,5.60
2019-01-06T18:22:06.556Z,5.70
2019-01-06T18:24:56.102Z,5.70
2019-01-06T18:27:29.469Z,5.70
2019-01-06T18:30:16.003Z,5.70
2019-01-06T18:32:47.016Z,5.70
2019-01-06T18:35:26.462Z,5.70
2019-01-06T18:37:57.393Z,5.70
2019-01-06T18:40:44.610Z,5.70
2019-01-06T18:43:24.825Z,5.70
2019-01-06T18:45:56.287Z,5.70
2019-01-06T18:48:27.270Z,5.80
2019-01-06T18:51:07.478Z,5.80
2019-01-06T18:53:53.711Z,5.70
2019-01-06T18:56:30.627Z,5.60
2019-01-06T18:59:18.079Z,5.60
2019-01-06T19:01:49.011Z,5.60
2019-01-06T19:04:22.649Z,5.60
2019-01-06T19:06:59.979Z,5.60
2019-01-06T19:09:46.019Z,5.70
2019-01-06T19:12:17.023Z,5.70
2019-01-06T19:14:50.689Z,5.70
2019-01-06T19:17:31.004Z,5.80
2019-01-06T19:20:01.939Z,5.80
2019-01-06T19:22:42.072Z,5.80
2019-01-06T19:25:29.283Z,5.80
2019-01-06T19:28:06.708Z,5.80
2019-01-06T19:30:43.353Z,5.80
2019-01-06T19:33:30.693Z,5.90
2019-01-06T19:36:11.134Z,5.90
2019-01-06T19:38:48.323Z,5.80
2019-01-06T19:41:31.376Z,5.80
2019-01-06T19:44:08.037Z,5.90
2019-01-06T19:46:47.717Z,5.90
2019-01-06T19:49:30.694Z,5.80
2019-01-06T19:52:12.664Z,5.80
2019-01-06T19:54:53.738Z,5.80
2019-01-06T19:57:46.857Z,5.80
2019-01-06T20:00:12.694Z,5.70
2019-01-06T20:02:59.670Z,5.70
2019-01-06T20:05:48.992Z,5.70
2019-01-06T20:08:22.476Z,5.80
2019-01-06T20:11:05.421Z,5.80
2019-01-06T20:13:52.729Z,5.80
2019-01-06T20:16:23.659Z,5.80
2019-01-06T20:19:06.769Z,5.70
2019-01-06T20:21:54.158Z,5.70
2019-01-06T20:24:37.146Z,5.60
2019-01-06T20:27:10.566Z,5.70
2019-01-06T20:29:58.108Z,5.70
2019-01-06T20:32:47.322Z,5.70
2019-01-06T20:35:18.254Z,5.70
2019-01-06T20:37:49.459Z,5.80
2019-01-06T20:40:26.646Z,5.80
2019-01-06T20:43:13.867Z,5.80
2019-01-06T20:45:56.817Z,5.90
2019-01-06T20:48:44.526Z,5.80
2019-01-06T20:51:15.519Z,5.80
2019-01-06T20:54:02.980Z,5.70
2019-01-06T20:56:46.420Z,5.80
2019-01-06T20:59:26.135Z,5.80
2019-01-06T21:02:06.270Z,5.80
2019-01-06T21:04:37.195Z,5.80
2019-01-06T21:07:13.817Z,5.80
2019-01-06T21:09:56.541Z,5.90
2019-01-06T21:12:36.523Z,5.90
2019-01-06T21:15:24.451Z,5.90
2019-01-06T21:18:05.519Z,5.90
2019-01-06T21:20:36.439Z,5.80
2019-01-06T21:23:25.543Z,5.80
2019-01-06T21:26:05.678Z,5.80
2019-01-06T21:28:53.205Z,5.80
2019-01-06T21:31:24.109Z,5.80
2019-01-06T21:33:55.042Z,5.80
2019-01-06T21:36:29.731Z,5.70
2019-01-06T21:39:03.539Z,5.70
2019-01-06T21:41:43.286Z,5.70
2019-01-06T21:44:30.813Z,5.70
2019-01-06T21:47:18.070Z,5.70
2019-01-06T21:50:04.995Z,5.70
2019-01-06T21:52:39.126Z,5.70
2019-01-06T21:55:13.242Z,5.70
2019-01-06T21:57:50.333Z,5.70
2019-01-06T22:00:37.784Z,5.70
2019-01-06T22:03:25.312Z,5.70
2019-01-06T22:05:59.185Z,5.60
2019-01-06T22:08:46.815Z,5.70
2019-01-06T22:11:20.770Z,5.70
2019-01-06T22:13:54.849Z,5.70
2019-01-06T22:16:44.215Z,5.70
2019-01-06T22:19:20.915Z,5.80
2019-01-06T22:21:57.811Z,5.80
2019-01-06T22:24:44.890Z,5.80
2019-01-06T22:27:24.675Z,5.80
2019-01-06T22:30:11.846Z,5.70
2019-01-06T22:32:54.579Z,5.70
2019-01-06T22:35:28.981Z,5.70
2019-01-06T22:38:02.713Z,5.70
2019-01-06T22:40:33.629Z,5.70
2019-01-06T22:43:07.183Z,5.70
2019-01-06T22:45:38.107Z,5.70
2019-01-06T22:48:25.380Z,5.60
2019-01-06T22:51:02.082Z,5.70
2019-01-06T22:53:49.703Z,5.70
2019-01-06T22:56:37.639Z,5.60
2019-01-06T22:59:17.801Z,5.60
2019-01-06T23:02:01.148Z,5.70
2019-01-06T23:04:37.819Z,5.60
2019-01-06T23:07:14.747Z,5.70
2019-01-06T23:10:04.251Z,5.70
2019-01-06T23:12:35.263Z,5.70
2019-01-06T23:15:23.343Z,5.70
2019-01-06T23:18:10.799Z,5.60
2019-01-06T23:20:44.176Z,5.50
2019-01-06T23:23:23.830Z,5.60
2019-01-06T23:26:11.362Z,5.50
2019-01-06T23:28:42.294Z,5.60
2019-01-06T23:31:15.898Z,5.60
2019-01-06T23:36:48.103Z,5.50
2019-01-06T23:42:26.529Z,5.50
2019-01-06T23:47:39.641Z,5.50
2019-01-06T23:50:16.923Z,5.50
2019-01-06T23:52:48.176Z,5.50
2019-01-06T23:55:31.058Z,5.50
2019-01-06T23:58:18.291Z,5.50
